sensor_id;sensor_type;location;lat;lon;timestamp;P1;durP1;ratioP1;P2;durP2;ratioP2
1082;SDS011;530;51.448;7.238;2024-03-22T00:02:00;28.27;;;17.83;;
1082;SDS011;530;51.448;7.238;2024-03-22T00:04:26;31.50;;;19.83;;
1082;SDS011;530;51.448;7.238;2024-03-22T00:06:51;26.43;;;18.33;;
1082;SDS011;530;51.448;7.238;2024-03-22T00:09:17;27.50;;;19.57;;
1082;SDS011;530;51.448;7.238;2024-03-22T00:11:43;28.17;;;19.00;;
1082;SDS011;530;51.448;7.238;2024-03-22T00:14:10;30.70;;;19.03;;
1082;SDS011;530;51.448;7.238;2024-03-22T00:16:36;27.83;;;18.67;;
1082;SDS011;530;51.448;7.238;2024-03-22T00:19:02;27.27;;;19.27;;
1082;SDS011;530;51.448;7.238;2024-03-22T00:21:28;28.87;;;18.43;;
1082;SDS011;530;51.448;7.238;2024-03-22T00:23:55;28.27;;;18.07;;
1082;SDS011;530;51.448;7.238;2024-03-22T00:26:21;29.30;;;18.80;;
1082;SDS011;530;51.448;7.238;2024-03-22T00:28:46;28.60;;;18.07;;
1082;SDS011;530;51.448;7.238;2024-03-22T00:31:12;25.77;;;18.60;;
1082;SDS011;530;51.448;7.238;2024-03-22T00:33:38;30.60;;;19.03;;
1082;SDS011;530;51.448;7.238;2024-03-22T00:36:04;27.30;;;18.20;;
1082;SDS011;530;51.448;7.238;2024-03-22T00:38:30;26.57;;;17.30;;
1082;SDS011;530;51.448;7.238;2024-03-22T00:40:56;27.40;;;17.87;;
1082;SDS011;530;51.448;7.238;2024-03-22T00:43:21;26.57;;;17.77;;
1082;SDS011;530;51.448;7.238;2024-03-22T00:45:47;29.57;;;18.83;;
1082;SDS011;530;51.448;7.238;2024-03-22T00:48:13;28.97;;;18.80;;
1082;SDS011;530;51.448;7.238;2024-03-22T00:50:39;29.47;;;19.33;;
1082;SDS011;530;51.448;7.238;2024-03-22T00:53:05;25.60;;;17.50;;
1082;SDS011;530;51.448;7.238;2024-03-22T00:55:32;28.87;;;19.37;;
1082;SDS011;530;51.448;7.238;2024-03-22T00:57:58;24.33;;;16.77;;
1082;SDS011;530;51.448;7.238;2024-03-22T01:00:24;31.03;;;18.37;;
1082;SDS011;530;51.448;7.238;2024-03-22T01:02:50;25.93;;;18.63;;
1082;SDS011;530;51.448;7.238;2024-03-22T01:05:16;32.30;;;19.20;;
1082;SDS011;530;51.448;7.238;2024-03-22T01:07:43;23.77;;;16.43;;
1082;SDS011;530;51.448;7.238;2024-03-22T01:10:09;26.10;;;17.77;;
1082;SDS011;530;51.448;7.238;2024-03-22T01:12:35;33.83;;;19.47;;
1082;SDS011;530;51.448;7.238;2024-03-22T01:15:01;31.83;;;18.07;;
1082;SDS011;530;51.448;7.238;2024-03-22T01:17:28;30.60;;;20.07;;
1082;SDS011;530;51.448;7.238;2024-03-22T01:19:54;25.80;;;17.90;;
1082;SDS011;530;51.448;7.238;2024-03-22T01:22:19;27.23;;;18.20;;
1082;SDS011;530;51.448;7.238;2024-03-22T01:24:45;25.80;;;17.60;;
1082;SDS011;530;51.448;7.238;2024-03-22T01:27:11;24.17;;;17.17;;
1082;SDS011;530;51.448;7.238;2024-03-22T01:29:37;29.53;;;19.33;;
1082;SDS011;530;51.448;7.238;2024-03-22T01:32:03;31.40;;;18.73;;
1082;SDS011;530;51.448;7.238;2024-03-22T01:34:29;26.50;;;17.47;;
1082;SDS011;530;51.448;7.238;2024-03-22T01:36:55;25.87;;;17.40;;
1082;SDS011;530;51.448;7.238;2024-03-22T01:39:21;24.40;;;17.40;;
1082;SDS011;530;51.448;7.238;2024-03-22T01:41:47;26.13;;;18.07;;
1082;SDS011;530;51.448;7.238;2024-03-22T01:44:13;27.37;;;17.83;;
1082;SDS011;530;51.448;7.238;2024-03-22T01:46:39;30.73;;;18.03;;
1082;SDS011;530;51.448;7.238;2024-03-22T01:49:06;29.57;;;17.63;;
1082;SDS011;530;51.448;7.238;2024-03-22T01:51:38;26.17;;;17.20;;
1082;SDS011;530;51.448;7.238;2024-03-22T01:54:11;24.80;;;16.20;;
1082;SDS011;530;51.448;7.238;2024-03-22T01:56:36;27.77;;;16.90;;
1082;SDS011;530;51.448;7.238;2024-03-22T01:59:04;26.40;;;18.50;;
1082;SDS011;530;51.448;7.238;2024-03-22T02:01:30;25.13;;;17.20;;
1082;SDS011;530;51.448;7.238;2024-03-22T02:03:56;26.30;;;16.80;;
1082;SDS011;530;51.448;7.238;2024-03-22T02:06:22;24.60;;;16.33;;
1082;SDS011;530;51.448;7.238;2024-03-22T02:08:48;24.90;;;16.73;;
1082;SDS011;530;51.448;7.238;2024-03-22T02:11:13;23.70;;;16.97;;
1082;SDS011;530;51.448;7.238;2024-03-22T02:13:39;28.70;;;17.90;;
1082;SDS011;530;51.448;7.238;2024-03-22T02:16:05;23.93;;;15.53;;
1082;SDS011;530;51.448;7.238;2024-03-22T02:18:31;23.90;;;16.30;;
1082;SDS011;530;51.448;7.238;2024-03-22T02:20:57;25.37;;;16.37;;
1082;SDS011;530;51.448;7.238;2024-03-22T02:23:55;24.93;;;16.03;;
1082;SDS011;530;51.448;7.238;2024-03-22T02:26:14;27.87;;;17.20;;
1082;SDS011;530;51.448;7.238;2024-03-22T02:28:40;27.80;;;16.93;;
1082;SDS011;530;51.448;7.238;2024-03-22T02:31:05;25.43;;;16.47;;
1082;SDS011;530;51.448;7.238;2024-03-22T02:33:31;26.60;;;16.73;;
1082;SDS011;530;51.448;7.238;2024-03-22T02:35:57;22.90;;;16.27;;
1082;SDS011;530;51.448;7.238;2024-03-22T02:38:23;24.80;;;16.80;;
1082;SDS011;530;51.448;7.238;2024-03-22T02:40:49;26.60;;;16.83;;
1082;SDS011;530;51.448;7.238;2024-03-22T02:43:16;24.50;;;16.40;;
1082;SDS011;530;51.448;7.238;2024-03-22T02:45:46;27.00;;;15.67;;
1082;SDS011;530;51.448;7.238;2024-03-22T02:48:12;25.10;;;17.03;;
1082;SDS011;530;51.448;7.238;2024-03-22T02:50:38;26.03;;;16.17;;
1082;SDS011;530;51.448;7.238;2024-03-22T02:53:04;23.23;;;17.10;;
1082;SDS011;530;51.448;7.238;2024-03-22T02:55:30;26.63;;;17.73;;
1082;SDS011;530;51.448;7.238;2024-03-22T02:58:03;22.00;;;16.37;;
1082;SDS011;530;51.448;7.238;2024-03-22T03:00:29;26.27;;;16.50;;
1082;SDS011;530;51.448;7.238;2024-03-22T03:02:54;24.73;;;16.43;;
1082;SDS011;530;51.448;7.238;2024-03-22T03:05:20;24.67;;;15.63;;
1082;SDS011;530;51.448;7.238;2024-03-22T03:07:48;23.73;;;16.77;;
1082;SDS011;530;51.448;7.238;2024-03-22T03:10:14;27.33;;;17.37;;
1082;SDS011;530;51.448;7.238;2024-03-22T03:12:40;23.70;;;15.50;;
1082;SDS011;530;51.448;7.238;2024-03-22T03:15:05;24.60;;;17.60;;
1082;SDS011;530;51.448;7.238;2024-03-22T03:17:32;23.60;;;16.33;;
1082;SDS011;530;51.448;7.238;2024-03-22T03:19:57;26.40;;;18.20;;
1082;SDS011;530;51.448;7.238;2024-03-22T03:22:23;27.13;;;16.53;;
1082;SDS011;530;51.448;7.238;2024-03-22T03:24:49;25.77;;;16.30;;
1082;SDS011;530;51.448;7.238;2024-03-22T03:27:14;23.90;;;16.67;;
1082;SDS011;530;51.448;7.238;2024-03-22T03:29:40;25.90;;;17.20;;
1082;SDS011;530;51.448;7.238;2024-03-22T03:32:06;22.60;;;16.90;;
1082;SDS011;530;51.448;7.238;2024-03-22T03:34:31;25.10;;;16.93;;
1082;SDS011;530;51.448;7.238;2024-03-22T03:36:57;30.27;;;17.40;;
1082;SDS011;530;51.448;7.238;2024-03-22T03:39:26;25.83;;;17.00;;
1082;SDS011;530;51.448;7.238;2024-03-22T03:41:52;21.83;;;16.57;;
1082;SDS011;530;51.448;7.238;2024-03-22T03:44:17;25.13;;;17.03;;
1082;SDS011;530;51.448;7.238;2024-03-22T03:46:43;24.40;;;16.40;;
1082;SDS011;530;51.448;7.238;2024-03-22T03:49:08;25.37;;;16.17;;
1082;SDS011;530;51.448;7.238;2024-03-22T03:51:35;25.47;;;16.10;;
1082;SDS011;530;51.448;7.238;2024-03-22T03:54:02;26.00;;;16.10;;
1082;SDS011;530;51.448;7.238;2024-03-22T03:56:28;26.13;;;17.47;;
1082;SDS011;530;51.448;7.238;2024-03-22T03:58:53;25.93;;;16.27;;
1082;SDS011;530;51.448;7.238;2024-03-22T04:01:19;26.50;;;16.20;;
1082;SDS011;530;51.448;7.238;2024-03-22T04:03:45;22.83;;;15.17;;
1082;SDS011;530;51.448;7.238;2024-03-22T04:06:10;21.97;;;15.53;;
1082;SDS011;530;51.448;7.238;2024-03-22T04:08:36;23.97;;;16.50;;
1082;SDS011;530;51.448;7.238;2024-03-22T04:11:02;23.80;;;16.30;;
1082;SDS011;530;51.448;7.238;2024-03-22T04:13:28;22.63;;;16.17;;
1082;SDS011;530;51.448;7.238;2024-03-22T04:15:53;22.07;;;16.90;;
1082;SDS011;530;51.448;7.238;2024-03-22T04:18:19;27.73;;;17.80;;
1082;SDS011;530;51.448;7.238;2024-03-22T04:20:57;23.07;;;16.50;;
1082;SDS011;530;51.448;7.238;2024-03-22T04:23:24;21.60;;;15.27;;
1082;SDS011;530;51.448;7.238;2024-03-22T04:28:25;24.50;;;15.57;;
1082;SDS011;530;51.448;7.238;2024-03-22T04:31:01;22.63;;;17.10;;
1082;SDS011;530;51.448;7.238;2024-03-22T04:33:31;26.60;;;14.63;;
1082;SDS011;530;51.448;7.238;2024-03-22T04:35:58;21.20;;;15.37;;
1082;SDS011;530;51.448;7.238;2024-03-22T04:38:25;21.07;;;15.50;;
1082;SDS011;530;51.448;7.238;2024-03-22T04:40:52;23.33;;;15.77;;
1082;SDS011;530;51.448;7.238;2024-03-22T04:43:19;19.73;;;14.67;;
1082;SDS011;530;51.448;7.238;2024-03-22T04:45:46;23.27;;;15.17;;
1082;SDS011;530;51.448;7.238;2024-03-22T04:48:13;22.63;;;15.20;;
1082;SDS011;530;51.448;7.238;2024-03-22T04:50:42;21.37;;;14.30;;
1082;SDS011;530;51.448;7.238;2024-03-22T04:53:08;19.83;;;15.27;;
1082;SDS011;530;51.448;7.238;2024-03-22T04:55:34;22.23;;;14.30;;
1082;SDS011;530;51.448;7.238;2024-03-22T04:57:59;26.37;;;15.13;;
1082;SDS011;530;51.448;7.238;2024-03-22T05:00:25;19.07;;;14.30;;
1082;SDS011;530;51.448;7.238;2024-03-22T05:02:52;20.23;;;14.13;;
1082;SDS011;530;51.448;7.238;2024-03-22T05:05:18;19.93;;;15.13;;
1082;SDS011;530;51.448;7.238;2024-03-22T05:07:43;19.07;;;14.63;;
1082;SDS011;530;51.448;7.238;2024-03-22T05:10:09;21.00;;;15.17;;
1082;SDS011;530;51.448;7.238;2024-03-22T05:12:35;22.03;;;15.40;;
1082;SDS011;530;51.448;7.238;2024-03-22T05:15:05;25.03;;;15.47;;
1082;SDS011;530;51.448;7.238;2024-03-22T05:17:31;18.70;;;14.00;;
1082;SDS011;530;51.448;7.238;2024-03-22T05:20:00;18.73;;;14.17;;
1082;SDS011;530;51.448;7.238;2024-03-22T05:22:27;23.40;;;15.63;;
1082;SDS011;530;51.448;7.238;2024-03-22T05:24:53;18.73;;;13.83;;
1082;SDS011;530;51.448;7.238;2024-03-22T05:27:18;20.00;;;14.90;;
1082;SDS011;530;51.448;7.238;2024-03-22T05:29:44;22.00;;;14.40;;
1082;SDS011;530;51.448;7.238;2024-03-22T05:32:10;22.70;;;15.17;;
1082;SDS011;530;51.448;7.238;2024-03-22T05:34:36;20.13;;;15.30;;
1082;SDS011;530;51.448;7.238;2024-03-22T05:37:02;24.57;;;13.87;;
1082;SDS011;530;51.448;7.238;2024-03-22T05:39:28;19.60;;;14.33;;
1082;SDS011;530;51.448;7.238;2024-03-22T05:41:53;20.00;;;14.90;;
1082;SDS011;530;51.448;7.238;2024-03-22T05:44:22;23.33;;;15.27;;
1082;SDS011;530;51.448;7.238;2024-03-22T05:46:48;20.30;;;13.57;;
1082;SDS011;530;51.448;7.238;2024-03-22T05:49:14;18.90;;;13.50;;
1082;SDS011;530;51.448;7.238;2024-03-22T05:51:40;19.67;;;14.13;;
1082;SDS011;530;51.448;7.238;2024-03-22T05:54:06;21.30;;;14.57;;
1082;SDS011;530;51.448;7.238;2024-03-22T05:56:32;17.13;;;13.00;;
1082;SDS011;530;51.448;7.238;2024-03-22T05:58:58;18.60;;;13.93;;
1082;SDS011;530;51.448;7.238;2024-03-22T06:01:24;18.80;;;14.03;;
1082;SDS011;530;51.448;7.238;2024-03-22T06:03:50;19.00;;;13.30;;
1082;SDS011;530;51.448;7.238;2024-03-22T06:06:16;21.27;;;12.90;;
1082;SDS011;530;51.448;7.238;2024-03-22T06:08:42;20.63;;;12.57;;
1082;SDS011;530;51.448;7.238;2024-03-22T06:11:10;17.10;;;13.50;;
1082;SDS011;530;51.448;7.238;2024-03-22T06:13:35;16.57;;;12.23;;
1082;SDS011;530;51.448;7.238;2024-03-22T06:16:01;21.30;;;12.97;;
1082;SDS011;530;51.448;7.238;2024-03-22T06:18:27;18.50;;;13.30;;
1082;SDS011;530;51.448;7.238;2024-03-22T06:20:53;17.73;;;12.43;;
1082;SDS011;530;51.448;7.238;2024-03-22T06:23:20;17.30;;;12.40;;
1082;SDS011;530;51.448;7.238;2024-03-22T06:25:53;16.37;;;13.27;;
1082;SDS011;530;51.448;7.238;2024-03-22T06:28:19;16.37;;;13.03;;
1082;SDS011;530;51.448;7.238;2024-03-22T06:30:45;17.57;;;12.53;;
1082;SDS011;530;51.448;7.238;2024-03-22T06:33:10;17.70;;;13.13;;
1082;SDS011;530;51.448;7.238;2024-03-22T06:35:36;14.93;;;11.80;;
1082;SDS011;530;51.448;7.238;2024-03-22T06:38:02;17.20;;;11.60;;
1082;SDS011;530;51.448;7.238;2024-03-22T06:40:29;18.40;;;12.70;;
1082;SDS011;530;51.448;7.238;2024-03-22T06:42:55;18.53;;;12.53;;
1082;SDS011;530;51.448;7.238;2024-03-22T06:45:21;21.33;;;12.80;;
1082;SDS011;530;51.448;7.238;2024-03-22T06:47:46;19.23;;;13.63;;
1082;SDS011;530;51.448;7.238;2024-03-22T06:50:12;14.27;;;11.40;;
1082;SDS011;530;51.448;7.238;2024-03-22T06:52:38;17.53;;;12.70;;
1082;SDS011;530;51.448;7.238;2024-03-22T06:55:04;18.43;;;12.73;;
1082;SDS011;530;51.448;7.238;2024-03-22T06:57:31;18.47;;;12.10;;
1082;SDS011;530;51.448;7.238;2024-03-22T06:59:59;15.37;;;12.43;;
1082;SDS011;530;51.448;7.238;2024-03-22T07:02:24;14.17;;;11.17;;
1082;SDS011;530;51.448;7.238;2024-03-22T07:04:51;18.70;;;12.60;;
1082;SDS011;530;51.448;7.238;2024-03-22T07:07:17;15.10;;;11.93;;
1082;SDS011;530;51.448;7.238;2024-03-22T07:09:43;14.60;;;12.90;;
1082;SDS011;530;51.448;7.238;2024-03-22T07:12:09;21.87;;;12.57;;
1082;SDS011;530;51.448;7.238;2024-03-22T07:14:35;18.63;;;13.00;;
1082;SDS011;530;51.448;7.238;2024-03-22T07:17:00;19.90;;;13.10;;
1082;SDS011;530;51.448;7.238;2024-03-22T07:19:26;16.93;;;12.93;;
1082;SDS011;530;51.448;7.238;2024-03-22T07:21:53;18.23;;;12.80;;
1082;SDS011;530;51.448;7.238;2024-03-22T07:24:19;16.00;;;12.60;;
1082;SDS011;530;51.448;7.238;2024-03-22T07:26:48;18.20;;;12.60;;
1082;SDS011;530;51.448;7.238;2024-03-22T07:29:14;15.90;;;12.80;;
1082;SDS011;530;51.448;7.238;2024-03-22T07:31:40;14.00;;;11.80;;
1082;SDS011;530;51.448;7.238;2024-03-22T07:34:05;15.97;;;12.10;;
1082;SDS011;530;51.448;7.238;2024-03-22T07:36:31;20.50;;;12.93;;
1082;SDS011;530;51.448;7.238;2024-03-22T07:39:02;25.77;;;13.60;;
1082;SDS011;530;51.448;7.238;2024-03-22T07:41:28;16.00;;;12.70;;
1082;SDS011;530;51.448;7.238;2024-03-22T07:43:54;63.00;;;16.10;;
1082;SDS011;530;51.448;7.238;2024-03-22T07:46:20;20.30;;;12.60;;
1082;SDS011;530;51.448;7.238;2024-03-22T07:48:46;15.37;;;12.50;;
1082;SDS011;530;51.448;7.238;2024-03-22T07:51:11;18.87;;;13.20;;
1082;SDS011;530;51.448;7.238;2024-03-22T07:53:37;16.70;;;12.67;;
1082;SDS011;530;51.448;7.238;2024-03-22T07:56:03;18.57;;;13.47;;
1082;SDS011;530;51.448;7.238;2024-03-22T07:58:29;18.37;;;13.23;;
1082;SDS011;530;51.448;7.238;2024-03-22T08:00:54;17.63;;;13.53;;
1082;SDS011;530;51.448;7.238;2024-03-22T08:03:20;18.20;;;13.50;;
1082;SDS011;530;51.448;7.238;2024-03-22T08:05:46;19.93;;;14.37;;
1082;SDS011;530;51.448;7.238;2024-03-22T08:08:11;18.90;;;14.40;;
1082;SDS011;530;51.448;7.238;2024-03-22T08:10:37;25.60;;;13.80;;
1082;SDS011;530;51.448;7.238;2024-03-22T08:13:03;21.57;;;14.70;;
1082;SDS011;530;51.448;7.238;2024-03-22T08:15:29;19.60;;;14.30;;
1082;SDS011;530;51.448;7.238;2024-03-22T08:17:55;17.80;;;14.53;;
1082;SDS011;530;51.448;7.238;2024-03-22T08:20:23;17.10;;;14.03;;
1082;SDS011;530;51.448;7.238;2024-03-22T08:22:49;18.03;;;13.93;;
1082;SDS011;530;51.448;7.238;2024-03-22T08:25:14;19.47;;;15.10;;
1082;SDS011;530;51.448;7.238;2024-03-22T08:27:46;22.13;;;15.07;;
1082;SDS011;530;51.448;7.238;2024-03-22T08:30:12;19.83;;;14.13;;
1082;SDS011;530;51.448;7.238;2024-03-22T08:32:38;21.77;;;16.00;;
1082;SDS011;530;51.448;7.238;2024-03-22T08:35:04;19.23;;;15.40;;
1082;SDS011;530;51.448;7.238;2024-03-22T08:37:31;18.17;;;14.13;;
1082;SDS011;530;51.448;7.238;2024-03-22T08:39:58;17.90;;;14.30;;
1082;SDS011;530;51.448;7.238;2024-03-22T08:42:24;18.20;;;14.10;;
1082;SDS011;530;51.448;7.238;2024-03-22T08:44:49;18.63;;;13.83;;
1082;SDS011;530;51.448;7.238;2024-03-22T08:47:15;19.90;;;15.43;;
1082;SDS011;530;51.448;7.238;2024-03-22T08:49:40;17.90;;;13.00;;
1082;SDS011;530;51.448;7.238;2024-03-22T08:52:11;16.30;;;13.23;;
1082;SDS011;530;51.448;7.238;2024-03-22T08:54:36;18.60;;;13.33;;
1082;SDS011;530;51.448;7.238;2024-03-22T08:57:02;18.07;;;13.33;;
1082;SDS011;530;51.448;7.238;2024-03-22T08:59:28;18.93;;;12.97;;
1082;SDS011;530;51.448;7.238;2024-03-22T09:01:53;15.53;;;13.30;;
1082;SDS011;530;51.448;7.238;2024-03-22T09:04:19;15.20;;;11.90;;
1082;SDS011;530;51.448;7.238;2024-03-22T09:06:45;13.30;;;11.37;;
1082;SDS011;530;51.448;7.238;2024-03-22T09:09:11;17.27;;;11.13;;
1082;SDS011;530;51.448;7.238;2024-03-22T09:11:37;21.70;;;12.17;;
1082;SDS011;530;51.448;7.238;2024-03-22T09:14:03;17.73;;;13.73;;
1082;SDS011;530;51.448;7.238;2024-03-22T09:16:29;14.80;;;12.43;;
1082;SDS011;530;51.448;7.238;2024-03-22T10:08:22;13.40;;;11.13;;
1082;SDS011;530;51.448;7.238;2024-03-22T10:10:47;16.43;;;10.57;;
1082;SDS011;530;51.448;7.238;2024-03-22T10:13:13;11.97;;;10.20;;
1082;SDS011;530;51.448;7.238;2024-03-22T10:15:39;10.90;;;8.97;;
1082;SDS011;530;51.448;7.238;2024-03-22T10:18:04;14.70;;;9.97;;
1082;SDS011;530;51.448;7.238;2024-03-22T10:20:30;15.23;;;10.00;;
1082;SDS011;530;51.448;7.238;2024-03-22T10:22:56;10.90;;;9.27;;
1082;SDS011;530;51.448;7.238;2024-03-22T10:25:25;18.63;;;10.67;;
1082;SDS011;530;51.448;7.238;2024-03-22T10:27:53;18.30;;;10.83;;
1082;SDS011;530;51.448;7.238;2024-03-22T10:30:20;13.43;;;9.90;;
1082;SDS011;530;51.448;7.238;2024-03-22T10:32:46;13.67;;;10.43;;
1082;SDS011;530;51.448;7.238;2024-03-22T10:35:14;15.17;;;10.03;;
1082;SDS011;530;51.448;7.238;2024-03-22T10:37:41;11.57;;;8.83;;
1082;SDS011;530;51.448;7.238;2024-03-22T10:40:07;11.30;;;9.00;;
1082;SDS011;530;51.448;7.238;2024-03-22T10:42:39;15.13;;;10.00;;
1082;SDS011;530;51.448;7.238;2024-03-22T10:45:06;13.33;;;8.73;;
1082;SDS011;530;51.448;7.238;2024-03-22T10:47:34;11.10;;;9.23;;
1082;SDS011;530;51.448;7.238;2024-03-22T10:55:23;10.40;;;9.13;;
1082;SDS011;530;51.448;7.238;2024-03-22T10:57:55;12.43;;;8.87;;
1082;SDS011;530;51.448;7.238;2024-03-22T11:00:34;10.07;;;8.30;;
1082;SDS011;530;51.448;7.238;2024-03-22T11:03:03;12.10;;;8.70;;
1082;SDS011;530;51.448;7.238;2024-03-22T11:05:29;11.83;;;8.47;;
1082;SDS011;530;51.448;7.238;2024-03-22T11:08:22;11.90;;;9.23;;
1082;SDS011;530;51.448;7.238;2024-03-22T11:10:54;8.90;;;8.00;;
1082;SDS011;530;51.448;7.238;2024-03-22T11:13:22;15.60;;;9.03;;
1082;SDS011;530;51.448;7.238;2024-03-22T11:15:51;13.20;;;9.90;;
1082;SDS011;530;51.448;7.238;2024-03-22T11:18:17;13.17;;;9.83;;
1082;SDS011;530;51.448;7.238;2024-03-22T11:20:43;12.10;;;9.10;;
1082;SDS011;530;51.448;7.238;2024-03-22T11:23:12;12.07;;;8.93;;
1082;SDS011;530;51.448;7.238;2024-03-22T11:25:38;14.07;;;9.90;;
1082;SDS011;530;51.448;7.238;2024-03-22T11:28:04;11.70;;;9.03;;
1082;SDS011;530;51.448;7.238;2024-03-22T11:30:30;11.67;;;8.53;;
1082;SDS011;530;51.448;7.238;2024-03-22T11:32:57;11.43;;;9.27;;
1082;SDS011;530;51.448;7.238;2024-03-22T11:35:23;18.20;;;8.40;;
1082;SDS011;530;51.448;7.238;2024-03-22T11:37:49;12.60;;;8.80;;
1082;SDS011;530;51.448;7.238;2024-03-22T11:40:16;11.70;;;8.13;;
1082;SDS011;530;51.448;7.238;2024-03-22T11:42:42;14.40;;;9.10;;
1082;SDS011;530;51.448;7.238;2024-03-22T11:45:14;12.50;;;9.50;;
1082;SDS011;530;51.448;7.238;2024-03-22T11:47:42;11.87;;;10.30;;
1082;SDS011;530;51.448;7.238;2024-03-22T11:50:09;12.97;;;10.47;;
1082;SDS011;530;51.448;7.238;2024-03-22T11:52:42;11.83;;;9.97;;
1082;SDS011;530;51.448;7.238;2024-03-22T11:55:10;13.07;;;9.80;;
1082;SDS011;530;51.448;7.238;2024-03-22T11:57:35;14.70;;;9.50;;
1082;SDS011;530;51.448;7.238;2024-03-22T12:00:02;14.00;;;9.80;;
1082;SDS011;530;51.448;7.238;2024-03-22T12:02:34;15.00;;;11.30;;
1082;SDS011;530;51.448;7.238;2024-03-22T12:05:01;13.80;;;11.47;;
1082;SDS011;530;51.448;7.238;2024-03-22T12:07:28;17.13;;;10.90;;
1082;SDS011;530;51.448;7.238;2024-03-22T12:09:54;14.53;;;11.00;;
1082;SDS011;530;51.448;7.238;2024-03-22T12:12:21;16.27;;;11.10;;
1082;SDS011;530;51.448;7.238;2024-03-22T12:14:48;14.67;;;11.03;;
1082;SDS011;530;51.448;7.238;2024-03-22T12:17:16;13.50;;;11.00;;
1082;SDS011;530;51.448;7.238;2024-03-22T12:19:42;11.67;;;10.40;;
1082;SDS011;530;51.448;7.238;2024-03-22T12:22:07;13.10;;;9.80;;
1082;SDS011;530;51.448;7.238;2024-03-22T12:24:33;16.70;;;10.43;;
1082;SDS011;530;51.448;7.238;2024-03-22T12:26:59;14.63;;;11.40;;
1082;SDS011;530;51.448;7.238;2024-03-22T12:29:25;12.90;;;10.50;;
1082;SDS011;530;51.448;7.238;2024-03-22T12:31:50;13.80;;;9.60;;
1082;SDS011;530;51.448;7.238;2024-03-22T12:34:16;11.63;;;8.70;;
1082;SDS011;530;51.448;7.238;2024-03-22T12:36:42;11.70;;;9.17;;
1082;SDS011;530;51.448;7.238;2024-03-22T12:39:08;20.87;;;10.37;;
1082;SDS011;530;51.448;7.238;2024-03-22T12:41:34;12.50;;;9.17;;
1082;SDS011;530;51.448;7.238;2024-03-22T12:44:00;12.90;;;9.63;;
1082;SDS011;530;51.448;7.238;2024-03-22T12:46:26;10.23;;;8.60;;
1082;SDS011;530;51.448;7.238;2024-03-22T12:48:52;13.67;;;9.70;;
1082;SDS011;530;51.448;7.238;2024-03-22T12:51:19;11.03;;;8.93;;
1082;SDS011;530;51.448;7.238;2024-03-22T12:53:45;13.07;;;8.87;;
1082;SDS011;530;51.448;7.238;2024-03-22T12:56:11;10.90;;;8.93;;
1082;SDS011;530;51.448;7.238;2024-03-22T12:58:37;11.20;;;9.00;;
1082;SDS011;530;51.448;7.238;2024-03-22T13:01:04;10.83;;;8.70;;
1082;SDS011;530;51.448;7.238;2024-03-22T13:03:31;13.37;;;9.70;;
1082;SDS011;530;51.448;7.238;2024-03-22T13:05:57;12.33;;;9.33;;
1082;SDS011;530;51.448;7.238;2024-03-22T13:08:23;12.97;;;10.10;;
1082;SDS011;530;51.448;7.238;2024-03-22T13:10:49;12.37;;;9.80;;
1082;SDS011;530;51.448;7.238;2024-03-22T13:13:15;15.80;;;10.30;;
1082;SDS011;530;51.448;7.238;2024-03-22T13:15:44;11.70;;;9.67;;
1082;SDS011;530;51.448;7.238;2024-03-22T13:18:12;13.20;;;11.20;;
1082;SDS011;530;51.448;7.238;2024-03-22T13:20:38;14.43;;;10.03;;
1082;SDS011;530;51.448;7.238;2024-03-22T13:23:04;15.33;;;11.37;;
1082;SDS011;530;51.448;7.238;2024-03-22T13:25:30;13.33;;;10.63;;
1082;SDS011;530;51.448;7.238;2024-03-22T13:27:56;16.20;;;11.60;;
1082;SDS011;530;51.448;7.238;2024-03-22T13:30:21;14.10;;;11.17;;
1082;SDS011;530;51.448;7.238;2024-03-22T13:32:47;15.93;;;10.37;;
1082;SDS011;530;51.448;7.238;2024-03-22T13:35:13;13.67;;;10.70;;
1082;SDS011;530;51.448;7.238;2024-03-22T13:37:40;14.50;;;10.80;;
1082;SDS011;530;51.448;7.238;2024-03-22T13:40:06;14.10;;;11.37;;
1082;SDS011;530;51.448;7.238;2024-03-22T13:42:32;11.97;;;10.07;;
1082;SDS011;530;51.448;7.238;2024-03-22T13:44:58;15.40;;;11.70;;
1082;SDS011;530;51.448;7.238;2024-03-22T13:47:24;16.20;;;11.90;;
1082;SDS011;530;51.448;7.238;2024-03-22T13:49:52;13.80;;;11.57;;
1082;SDS011;530;51.448;7.238;2024-03-22T13:52:18;15.20;;;12.33;;
1082;SDS011;530;51.448;7.238;2024-03-22T13:54:45;14.83;;;12.47;;
1082;SDS011;530;51.448;7.238;2024-03-22T13:57:11;17.03;;;12.40;;
1082;SDS011;530;51.448;7.238;2024-03-22T13:59:37;14.67;;;11.70;;
1082;SDS011;530;51.448;7.238;2024-03-22T14:02:05;14.00;;;12.03;;
1082;SDS011;530;51.448;7.238;2024-03-22T14:04:32;18.67;;;13.27;;
1082;SDS011;530;51.448;7.238;2024-03-22T14:06:58;15.63;;;13.17;;
1082;SDS011;530;51.448;7.238;2024-03-22T14:09:24;15.23;;;12.23;;
1082;SDS011;530;51.448;7.238;2024-03-22T14:11:51;17.30;;;12.70;;
1082;SDS011;530;51.448;7.238;2024-03-22T14:14:16;14.33;;;12.53;;
1082;SDS011;530;51.448;7.238;2024-03-22T14:16:42;16.67;;;12.63;;
1082;SDS011;530;51.448;7.238;2024-03-22T14:19:08;14.80;;;12.13;;
1082;SDS011;530;51.448;7.238;2024-03-22T14:21:34;18.73;;;13.53;;
1082;SDS011;530;51.448;7.238;2024-03-22T14:23:59;16.30;;;12.60;;
1082;SDS011;530;51.448;7.238;2024-03-22T14:26:25;15.43;;;12.87;;
1082;SDS011;530;51.448;7.238;2024-03-22T14:28:51;17.97;;;14.27;;
1082;SDS011;530;51.448;7.238;2024-03-22T14:31:17;17.50;;;12.90;;
1082;SDS011;530;51.448;7.238;2024-03-22T14:33:44;16.70;;;13.30;;
1082;SDS011;530;51.448;7.238;2024-03-22T14:36:10;16.50;;;12.77;;
1082;SDS011;530;51.448;7.238;2024-03-22T14:38:37;16.67;;;14.23;;
1082;SDS011;530;51.448;7.238;2024-03-22T14:41:03;16.70;;;14.30;;
1082;SDS011;530;51.448;7.238;2024-03-22T14:43:29;20.17;;;13.40;;
1082;SDS011;530;51.448;7.238;2024-03-22T14:45:57;18.20;;;16.30;;
1082;SDS011;530;51.448;7.238;2024-03-22T14:48:23;20.53;;;16.43;;
1082;SDS011;530;51.448;7.238;2024-03-22T14:50:49;17.83;;;15.30;;
1082;SDS011;530;51.448;7.238;2024-03-22T14:53:16;20.47;;;16.37;;
1082;SDS011;530;51.448;7.238;2024-03-22T14:58:24;23.23;;;16.07;;
1082;SDS011;530;51.448;7.238;2024-03-22T15:00:53;23.60;;;16.97;;
1082;SDS011;530;51.448;7.238;2024-03-22T15:03:19;20.07;;;14.93;;
1082;SDS011;530;51.448;7.238;2024-03-22T15:05:45;18.30;;;16.00;;
1082;SDS011;530;51.448;7.238;2024-03-22T15:08:11;20.70;;;17.40;;
1082;SDS011;530;51.448;7.238;2024-03-22T15:10:37;20.30;;;16.57;;
1082;SDS011;530;51.448;7.238;2024-03-22T15:13:04;18.67;;;15.80;;
1082;SDS011;530;51.448;7.238;2024-03-22T15:15:31;18.97;;;15.50;;
1082;SDS011;530;51.448;7.238;2024-03-22T15:17:58;21.63;;;17.57;;
1082;SDS011;530;51.448;7.238;2024-03-22T15:20:24;20.60;;;17.30;;
1082;SDS011;530;51.448;7.238;2024-03-22T15:22:51;21.80;;;17.13;;
1082;SDS011;530;51.448;7.238;2024-03-22T15:25:17;21.57;;;17.70;;
1082;SDS011;530;51.448;7.238;2024-03-22T15:27:43;23.37;;;17.73;;
1082;SDS011;530;51.448;7.238;2024-03-22T15:30:09;22.13;;;17.27;;
1082;SDS011;530;51.448;7.238;2024-03-22T15:32:35;22.17;;;17.00;;
1082;SDS011;530;51.448;7.238;2024-03-22T15:35:01;22.27;;;18.73;;
1082;SDS011;530;51.448;7.238;2024-03-22T15:37:26;21.07;;;17.10;;
1082;SDS011;530;51.448;7.238;2024-03-22T15:39:52;23.87;;;18.40;;
1082;SDS011;530;51.448;7.238;2024-03-22T15:42:18;21.73;;;17.13;;
1082;SDS011;530;51.448;7.238;2024-03-22T15:44:43;23.50;;;16.60;;
1082;SDS011;530;51.448;7.238;2024-03-22T15:47:09;23.70;;;17.67;;
1082;SDS011;530;51.448;7.238;2024-03-22T15:49:35;24.23;;;17.57;;
1082;SDS011;530;51.448;7.238;2024-03-22T15:52:01;24.27;;;17.80;;
1082;SDS011;530;51.448;7.238;2024-03-22T15:54:27;24.47;;;18.13;;
1082;SDS011;530;51.448;7.238;2024-03-22T15:56:52;22.93;;;17.20;;
1082;SDS011;530;51.448;7.238;2024-03-22T15:59:18;21.13;;;16.37;;